createdAt,value
2023-01-03T00:01:37.941Z,98797.31
2023-01-03T00:04:07.022Z,98791.34
2023-01-03T00:06:38.508Z,98780.16
2023-01-03T00:09:09.861Z,98787.28
2023-01-03T00:11:56.725Z,98780.16
2023-01-03T00:14:27.907Z,98789.72
2023-01-03T00:16:58.574Z,98791.41
2023-01-03T00:19:31.879Z,98797.97
2023-01-03T00:22:01.489Z,98786.44
2023-01-03T00:24:30.181Z,98796.78
2023-01-03T00:26:58.533Z,98789.13
2023-01-03T00:29:27.464Z,98798.16
2023-01-03T00:31:55.839Z,98806.63
2023-01-03T00:34:24.839Z,98809.97
2023-01-03T00:36:53.351Z,98820.34
2023-01-03T00:39:23.832Z,98822.63
2023-01-03T00:41:52.272Z,98821.69
2023-01-03T00:44:21.414Z,98824.69
2023-01-03T00:46:49.807Z,98827.41
2023-01-03T00:49:18.465Z,98813.75
2023-01-03T00:51:46.805Z,98816.75
2023-01-03T00:54:16.406Z,98813.75
2023-01-03T00:56:47.502Z,98812.72
2023-01-03T00:59:17.552Z,98805.59
2023-01-03T01:01:48.324Z,98822.03
2023-01-03T01:04:19.645Z,98817.66
2023-01-03T01:06:50.735Z,98825.34
2023-01-03T01:09:20.262Z,98829.72
2023-01-03T01:11:50.120Z,98832.72
2023-01-03T01:14:23.124Z,98825.59
2023-01-03T01:16:54.278Z,98838.22
2023-01-03T01:19:23.181Z,98837.91
2023-01-03T01:21:51.612Z,98826.97
2023-01-03T01:24:20.523Z,98838.75
2023-01-03T01:26:50.459Z,98846.72
2023-01-03T01:29:19.297Z,98847.78
2023-01-03T01:31:48.283Z,98837.41
2023-01-03T01:34:17.647Z,98849.19
2023-01-03T01:36:47.288Z,98836.88
2023-01-03T01:39:18.236Z,98846.16
2023-01-03T01:42:05.415Z,98842.06
2023-01-03T01:44:49.194Z,98840.69
2023-01-03T01:47:22.424Z,98857.13
2023-01-03T01:49:53.446Z,98858.47
2023-01-03T01:52:22.561Z,98849.97
2023-01-03T01:54:53.196Z,98850.56
2023-01-03T01:57:23.197Z,98853.84
2023-01-03T01:59:53.186Z,98865.34
2023-01-03T02:02:23.468Z,98857.41
2023-01-03T02:04:55.038Z,98861.50
2023-01-03T02:07:24.241Z,98864.78
2023-01-03T02:09:55.672Z,98868.34
2023-01-03T02:12:47.508Z,98870.56
2023-01-03T02:15:33.936Z,98867.00
2023-01-03T02:18:13.030Z,98858.22
2023-01-03T02:21:01.061Z,98865.28
2023-01-03T02:23:41.726Z,98863.97
2023-01-03T02:26:34.970Z,98865.50
2023-01-03T02:29:21.006Z,98876.47
2023-01-03T02:31:55.076Z,98882.28
2023-01-03T02:34:29.132Z,98891.09
2023-01-03T02:37:07.577Z,98902.00
2023-01-03T02:39:40.846Z,98909.16
2023-01-03T02:42:30.084Z,98922.59
2023-01-03T02:45:04.525Z,98923.41
2023-01-03T02:47:39.222Z,98926.44
2023-01-03T02:50:12.571Z,98930.00
2023-01-03T02:52:42.688Z,98923.94
2023-01-03T02:55:15.726Z,98929.13
2023-01-03T02:57:49.255Z,98935.47
2023-01-03T03:00:20.805Z,98935.47
2023-01-03T03:02:53.405Z,98945.88
2023-01-03T03:05:24.914Z,98947.78
2023-01-03T03:07:54.029Z,98941.53
2023-01-03T03:10:40.747Z,98947.28
2023-01-03T03:13:15.098Z,98936.31
2023-01-03T03:15:49.404Z,98951.34
2023-01-03T03:18:21.161Z,98956.31
2023-01-03T03:21:06.532Z,98956.94
2023-01-03T03:23:55.832Z,98952.97
2023-01-03T03:26:27.540Z,98957.91
2023-01-03T03:28:58.230Z,98963.31
2023-01-03T03:31:32.576Z,98968.56
2023-01-03T03:34:07.993Z,98964.44
2023-01-03T03:36:43.136Z,98979.03
2023-01-03T03:39:27.024Z,98976.03
2023-01-03T03:42:15.884Z,98975.50
2023-01-03T03:45:03.053Z,98976.00
2023-01-03T03:47:39.377Z,98979.69
2023-01-03T03:50:15.060Z,98988.16
2023-01-03T03:52:47.351Z,98994.28
2023-01-03T03:55:18.900Z,99006.19
2023-01-03T03:57:47.875Z,99000.69
2023-01-03T04:00:19.838Z,98996.09
2023-01-03T04:02:48.351Z,99006.53
2023-01-03T04:05:22.672Z,98996.38
2023-01-03T04:07:51.083Z,99015.03
2023-01-03T04:10:21.196Z,99015.00
2023-01-03T04:12:50.328Z,99015.59
2023-01-03T04:15:19.341Z,99011.75
2023-01-03T04:17:47.717Z,99022.69
2023-01-03T04:20:16.419Z,99022.72
2023-01-03T04:22:46.451Z,99022.41
2023-01-03T04:25:15.115Z,99023.81
2023-01-03T04:27:43.471Z,99023.53
2023-01-03T04:30:13.221Z,99020.50
2023-01-03T04:32:41.631Z,99016.09
2023-01-03T04:35:10.843Z,99024.06
2023-01-03T04:37:39.148Z,99028.41
2023-01-03T04:40:10.704Z,99028.19
2023-01-03T04:42:56.302Z,99031.75
2023-01-03T04:45:25.174Z,99037.75
2023-01-03T04:47:55.087Z,99027.63
2023-01-03T04:50:24.403Z,99031.44
2023-01-03T04:52:52.792Z,99024.03
2023-01-03T04:55:23.038Z,99034.25
2023-01-03T04:57:51.525Z,99044.03
2023-01-03T05:00:20.259Z,99038.28
2023-01-03T05:02:48.517Z,99043.50
2023-01-03T05:05:17.475Z,99041.56
2023-01-03T05:07:48.450Z,99041.34
2023-01-03T05:10:16.981Z,99047.88
2023-01-03T05:13:00.107Z,99057.25
2023-01-03T05:15:29.142Z,99056.16
2023-01-03T05:17:57.536Z,99064.84
2023-01-03T05:20:43.361Z,99059.94
2023-01-03T05:23:31.712Z,99075.09
2023-01-03T05:26:00.587Z,99066.53
2023-01-03T05:28:30.832Z,99068.78
2023-01-03T05:31:00.638Z,99076.97
2023-01-03T05:33:29.017Z,99077.50
2023-01-03T05:35:58.342Z,99079.44
2023-01-03T05:38:26.781Z,99081.34
2023-01-03T05:40:55.425Z,99082.47
2023-01-03T05:43:23.767Z,99070.94
2023-01-03T05:45:54.480Z,99087.16
2023-01-03T05:48:23.603Z,99090.19
2023-01-03T05:50:52.949Z,99097.59
2023-01-03T05:53:21.283Z,99101.66
2023-01-03T05:55:50.038Z,99099.47
2023-01-03T05:58:18.388Z,99108.78
2023-01-03T06:00:47.060Z,99108.22
2023-01-03T06:03:16.735Z,99111.56
2023-01-03T06:05:50.142Z,99114.28
2023-01-03T06:08:18.783Z,99116.19
2023-01-03T06:10:47.764Z,99119.53
2023-01-03T06:13:16.176Z,99122.53
2023-01-03T06:16:05.775Z,99124.19
2023-01-03T06:18:36.290Z,99124.50
2023-01-03T06:21:05.522Z,99125.28
2023-01-03T06:23:34.056Z,99133.50
2023-01-03T06:26:04.638Z,99134.66
2023-01-03T06:28:33.167Z,99145.03
2023-01-03T06:31:02.472Z,99151.59
2023-01-03T06:33:31.187Z,99155.47
2023-01-03T06:36:05.301Z,99154.13
2023-01-03T06:38:33.903Z,99153.28
2023-01-03T06:41:02.949Z,99154.63
2023-01-03T06:43:31.613Z,99168.06
2023-01-03T06:46:18.672Z,99174.66
2023-01-03T06:49:04.979Z,99176.56
2023-01-03T06:51:53.236Z,99177.13
2023-01-03T06:54:23.495Z,99183.16
2023-01-03T06:56:53.404Z,99183.97
2023-01-03T06:59:22.547Z,99186.16
2023-01-03T07:01:52.706Z,99197.97
2023-01-03T07:04:22.357Z,99204.84
2023-01-03T07:06:52.915Z,99199.91
2023-01-03T07:09:21.471Z,99207.00
2023-01-03T07:11:50.466Z,99211.41
2023-01-03T07:14:19.216Z,99197.13
2023-01-03T07:16:49.545Z,99209.81
2023-01-03T07:19:20.240Z,99214.75
2023-01-03T07:21:48.987Z,99224.59
2023-01-03T07:24:20.278Z,99224.38
2023-01-03T07:26:49.237Z,99227.31
2023-01-03T07:29:17.765Z,99232.59
2023-01-03T07:31:46.339Z,99242.22
2023-01-03T07:34:15.283Z,99237.00
2023-01-03T07:36:43.791Z,99236.97
2023-01-03T07:39:12.164Z,99241.63
2023-01-03T07:41:59.575Z,99242.81
2023-01-03T07:44:27.940Z,99247.69
2023-01-03T07:46:56.982Z,99251.81
2023-01-03T07:49:25.358Z,99246.09
2023-01-03T07:51:54.143Z,99255.50
2023-01-03T07:54:22.911Z,99260.41
2023-01-03T07:56:53.019Z,99264.44
2023-01-03T07:59:21.615Z,99262.72
2023-01-03T08:01:50.735Z,99268.56
2023-01-03T08:04:19.400Z,99261.28
2023-01-03T08:06:49.343Z,99258.56
2023-01-03T08:09:35.750Z,99273.31
2023-01-03T08:12:24.579Z,99268.31
2023-01-03T08:14:53.850Z,99265.81
2023-01-03T08:17:22.851Z,99269.09
2023-01-03T08:19:51.476Z,99256.84
2023-01-03T08:22:20.582Z,99276.66
2023-01-03T08:24:49.102Z,99272.97
2023-01-03T08:27:19.479Z,99277.81
2023-01-03T08:29:48.062Z,99270.91
2023-01-03T08:32:17.220Z,99279.16
2023-01-03T08:34:48.602Z,99278.91
2023-01-03T08:37:18.002Z,99275.91
2023-01-03T08:39:50.052Z,99275.72
2023-01-03T08:42:23.719Z,99279.84
2023-01-03T08:44:56.715Z,99277.06
2023-01-03T08:47:25.999Z,99282.69
2023-01-03T08:49:54.595Z,99279.66
2023-01-03T08:52:23.532Z,99285.75
2023-01-03T08:54:52.183Z,99285.63
2023-01-03T08:57:22.285Z,99284.06
2023-01-03T08:59:50.934Z,99292.25
2023-01-03T09:02:19.878Z,99298.03
2023-01-03T09:04:48.776Z,99290.78
2023-01-03T09:07:18.072Z,99293.84
2023-01-03T09:09:46.539Z,99302.88
2023-01-03T09:12:16.025Z,99310.78
2023-01-03T09:14:46.508Z,99303.31
2023-01-03T09:17:15.385Z,99300.38
2023-01-03T09:19:44.338Z,99301.97
2023-01-03T09:22:14.767Z,99308.34
2023-01-03T09:24:43.282Z,99294.56
2023-01-03T09:27:12.013Z,99306.78
2023-01-03T09:29:40.560Z,99300.31
2023-01-03T09:32:11.486Z,99299.69
2023-01-03T09:34:39.948Z,99298.00
2023-01-03T09:37:08.866Z,99303.22
2023-01-03T09:39:37.330Z,99293.16
2023-01-03T09:42:24.122Z,99288.72
2023-01-03T09:44:53.247Z,99288.78
2023-01-03T09:47:25.923Z,99287.19
2023-01-03T09:53:02.987Z,99284.50
2023-01-03T09:55:54.600Z,99280.34
2023-01-03T09:58:41.113Z,99283.94
2023-01-03T10:01:43.266Z,99278.94
2023-01-03T10:04:37.916Z,99287.47
2023-01-03T10:07:17.017Z,99296.09
2023-01-03T10:09:53.575Z,99296.88
2023-01-03T10:12:27.972Z,99289.84
2023-01-03T10:15:13.545Z,99281.72
2023-01-03T10:17:47.404Z,99283.09
2023-01-03T10:20:31.043Z,99289.94
2023-01-03T10:23:02.894Z,99280.28
2023-01-03T10:25:32.985Z,99288.38
2023-01-03T10:28:05.744Z,99293.56
2023-01-03T10:30:50.669Z,99294.13
2023-01-03T10:33:30.892Z,99282.69
2023-01-03T10:36:01.889Z,99284.78
2023-01-03T10:38:31.399Z,99281.91
2023-01-03T10:41:03.523Z,99268.25
2023-01-03T10:43:33.868Z,99270.03
2023-01-03T10:46:05.221Z,99269.66
2023-01-03T10:48:52.919Z,99270.06
2023-01-03T10:51:35.719Z,99262.13
2023-01-03T10:54:13.298Z,99278.69
2023-01-03T10:56:42.065Z,99274.53
2023-01-03T10:59:16.632Z,99279.03
2023-01-03T11:01:59.080Z,99274.56
2023-01-03T11:04:51.546Z,99278.81
2023-01-03T11:07:31.174Z,99278.97
2023-01-03T11:10:00.525Z,99273.56
2023-01-03T11:12:31.471Z,99282.22
2023-01-03T11:15:01.390Z,99271.28
2023-01-03T11:17:35.884Z,99274.50
2023-01-03T11:20:05.539Z,99274.13
2023-01-03T11:22:43.995Z,99272.66
2023-01-03T11:25:37.227Z,99277.19
2023-01-03T11:28:32.351Z,99272.16
2023-01-03T11:34:25.413Z,99269.69
2023-01-03T11:36:56.712Z,99265.66
2023-01-03T11:39:47.516Z,99267.69
2023-01-03T11:42:38.748Z,99264.88
2023-01-03T11:45:35.324Z,99262.47
2023-01-03T11:48:19.153Z,99264.25
2023-01-03T11:50:59.857Z,99263.03
2023-01-03T11:53:36.723Z,99256.78
2023-01-03T11:56:20.536Z,99253.81
2023-01-03T11:59:14.872Z,99259.22
2023-01-03T12:01:55.717Z,99260.88
2023-01-03T12:04:32.262Z,99257.97
2023-01-03T12:07:47.076Z,99263.59
2023-01-03T12:10:16.506Z,99260.00
2023-01-03T12:13:13.612Z,99262.09
2023-01-03T12:15:47.139Z,99253.59
2023-01-03T12:18:28.367Z,99255.13
2023-01-03T12:21:05.052Z,99263.63
2023-01-03T12:23:48.067Z,99246.63
2023-01-03T12:26:18.744Z,99251.19
2023-01-03T12:31:49.777Z,99249.75
2023-01-03T12:34:26.121Z,99251.91
2023-01-03T12:37:01.905Z,99249.53
2023-01-03T12:39:41.925Z,99254.59
2023-01-03T12:42:24.014Z,99249.19
2023-01-03T12:45:05.010Z,99257.84
2023-01-03T12:47:40.770Z,99254.66
2023-01-03T12:53:19.351Z,99260.84
2023-01-03T12:56:07.878Z,99250.72
2023-01-03T12:58:52.248Z,99252.38
2023-01-03T13:01:34.525Z,99253.56
2023-01-03T13:04:15.286Z,99256.84
2023-01-03T13:07:23.058Z,99247.66
2023-01-03T13:10:04.411Z,99257.00
2023-01-03T13:12:37.303Z,99245.69
2023-01-03T13:15:20.860Z,99254.31
2023-01-03T13:17:52.300Z,99252.31
2023-01-03T13:20:46.255Z,99263.41
2023-01-03T13:23:34.804Z,99254.38
2023-01-03T13:26:23.048Z,99261.72
2023-01-03T13:28:54.486Z,99244.72
2023-01-03T13:31:40.502Z,99251.00
2023-01-03T13:34:52.427Z,99252.59
2023-01-03T13:37:33.775Z,99255.03
2023-01-03T13:41:15.491Z,99259.06
2023-01-03T13:43:24.895Z,99253.50
2023-01-03T13:45:58.825Z,99259.22
2023-01-03T13:48:34.595Z,99253.41
2023-01-03T13:55:19.692Z,99264.41
2023-01-03T13:58:00.768Z,99264.53
2023-01-03T14:00:48.950Z,99272.31
2023-01-03T14:03:57.205Z,99277.75
2023-01-03T14:07:00.230Z,99275.28
2023-01-03T14:10:05.416Z,99281.09
2023-01-03T14:13:12.150Z,99286.00
2023-01-03T14:15:51.843Z,99284.47
2023-01-03T14:18:25.380Z,99278.47
2023-01-03T14:21:02.686Z,99286.22
2023-01-03T14:26:26.831Z,99286.22
2023-01-03T14:28:59.592Z,99287.06
2023-01-03T14:31:28.951Z,99290.63
2023-01-03T14:34:00.056Z,99292.00
2023-01-03T14:36:29.094Z,99291.72
2023-01-03T14:38:59.988Z,99291.47
2023-01-03T14:41:32.693Z,99292.28
2023-01-03T14:44:08.015Z,99287.88
2023-01-03T14:46:41.033Z,99291.47
2023-01-03T14:49:37.239Z,99292.28
2023-01-03T14:52:11.049Z,99295.59
2023-01-03T14:55:18.484Z,99304.38
2023-01-03T14:57:53.209Z,99306.56
2023-01-03T15:00:32.986Z,99308.78
2023-01-03T15:06:11.228Z,99316.19
2023-01-03T15:08:53.425Z,99313.13
2023-01-03T15:11:30.668Z,99319.44
2023-01-03T15:17:12.335Z,99318.66
2023-01-03T15:19:44.091Z,99327.34
2023-01-03T15:22:19.930Z,99331.97
2023-01-03T15:24:54.654Z,99327.84
2023-01-03T15:27:45.668Z,99331.75
2023-01-03T15:33:39.664Z,99336.13
2023-01-03T15:36:26.813Z,99351.38
2023-01-03T15:39:16.903Z,99346.09
2023-01-03T15:42:35.031Z,99355.06
2023-01-03T15:44:59.107Z,99347.31
2023-01-03T15:47:33.732Z,99342.53
2023-01-03T15:57:13.611Z,99361.13
2023-01-03T16:03:01.057Z,99373.91
2023-01-03T16:12:17.189Z,99381.63
2023-01-03T16:14:51.129Z,99377.78
2023-01-03T16:17:30.799Z,99371.66
2023-01-03T16:20:03.263Z,99380.16
2023-01-03T16:22:40.332Z,99372.81
2023-01-03T16:25:17.181Z,99377.22
2023-01-03T16:28:00.202Z,99388.97
2023-01-03T16:30:48.446Z,99386.97
2023-01-03T16:33:21.368Z,99390.03
2023-01-03T16:36:05.271Z,99387.44
2023-01-03T16:38:53.164Z,99386.13
2023-01-03T16:41:22.823Z,99387.28
2023-01-03T16:43:55.768Z,99386.53
2023-01-03T16:46:31.367Z,99388.91
2023-01-03T16:49:06.168Z,99388.00
2023-01-03T16:51:57.968Z,99381.63
2023-01-03T16:54:29.171Z,99392.16
2023-01-03T16:57:01.519Z,99387.63
2023-01-03T16:59:36.317Z,99392.25
2023-01-03T17:02:12.220Z,99394.44
2023-01-03T17:04:44.990Z,99395.03
2023-01-03T17:07:23.761Z,99402.22
2023-01-03T17:09:56.566Z,99391.00
2023-01-03T17:12:32.602Z,99401.72
2023-01-03T17:15:06.857Z,99403.03
2023-01-03T17:17:37.651Z,99401.72
2023-01-03T17:20:16.489Z,99399.56
2023-01-03T17:22:48.335Z,99404.13
2023-01-03T17:25:17.362Z,99393.47
2023-01-03T17:27:49.812Z,99396.44
2023-01-03T17:30:20.955Z,99401.53
2023-01-03T17:32:51.085Z,99405.06
2023-01-03T17:35:22.224Z,99410.75
2023-01-03T17:38:24.029Z,99408.59
2023-01-03T17:40:44.121Z,99407.34
2023-01-03T17:43:20.277Z,99415.00
2023-01-03T17:46:09.789Z,99414.78
2023-01-03T17:48:58.607Z,99417.50
2023-01-03T17:51:31.392Z,99416.91
2023-01-03T17:54:00.678Z,99425.97
2023-01-03T17:56:30.399Z,99414.03
2023-01-03T17:58:59.871Z,99417.78
2023-01-03T18:01:34.156Z,99426.06
2023-01-03T18:04:06.552Z,99429.88
2023-01-03T18:06:40.701Z,99428.00
2023-01-03T18:09:17.714Z,99430.78
2023-01-03T18:11:57.307Z,99437.63
2023-01-03T18:14:25.960Z,99426.47
2023-01-03T18:16:55.876Z,99427.31
2023-01-03T18:19:28.085Z,99429.06
2023-01-03T18:21:58.975Z,99433.19
2023-01-03T18:24:33.312Z,99435.47
2023-01-03T18:27:03.122Z,99437.94
2023-01-03T18:29:32.316Z,99437.81
2023-01-03T18:32:01.731Z,99439.78
2023-01-03T18:34:38.136Z,99437.09
2023-01-03T18:37:10.334Z,99433.38
2023-01-03T18:39:40.219Z,99430.59
2023-01-03T18:42:29.006Z,99442.59
2023-01-03T18:45:01.959Z,99452.91
2023-01-03T18:47:33.625Z,99447.38
2023-01-03T18:50:05.560Z,99451.84
2023-01-03T18:52:38.192Z,99449.91
2023-01-03T18:55:10.145Z,99451.53
2023-01-03T18:57:39.570Z,99455.53
2023-01-03T19:00:13.337Z,99461.25
2023-01-03T19:02:42.832Z,99454.47
2023-01-03T19:05:16.073Z,99457.16
2023-01-03T19:07:49.908Z,99463.47
2023-01-03T19:10:23.758Z,99459.22
2023-01-03T19:12:55.105Z,99456.03
2023-01-03T19:15:26.463Z,99463.03
2023-01-03T19:18:05.765Z,99461.78
2023-01-03T19:20:40.485Z,99465.44
2023-01-03T19:23:13.509Z,99459.03
2023-01-03T19:25:59.606Z,99462.53
2023-01-03T19:28:35.435Z,99459.72
2023-01-03T19:31:05.094Z,99459.41
2023-01-03T19:33:35.602Z,99457.63
2023-01-03T19:36:10.660Z,99458.63
2023-01-03T19:38:44.565Z,99462.03
2023-01-03T19:41:17.765Z,99469.78
2023-01-03T19:43:48.131Z,99460.25
2023-01-03T19:46:22.035Z,99461.38
2023-01-03T19:48:52.224Z,99464.13
2023-01-03T19:51:23.104Z,99465.03
2023-01-03T19:53:52.655Z,99468.00
2023-01-03T19:56:24.515Z,99469.00
2023-01-03T19:58:59.263Z,99472.91
2023-01-03T20:01:50.593Z,99473.41
2023-01-03T20:04:21.212Z,99468.56
2023-01-03T20:06:51.409Z,99468.34
2023-01-03T20:09:20.598Z,99469.91
2023-01-03T20:11:54.229Z,99472.53
2023-01-03T20:14:24.785Z,99473.94
2023-01-03T20:16:53.285Z,99476.84
2023-01-03T20:19:22.419Z,99477.72
2023-01-03T20:21:52.537Z,99475.22
2023-01-03T20:24:23.903Z,99479.53
2023-01-03T20:26:55.929Z,99479.41
2023-01-03T20:29:24.633Z,99473.66
2023-01-03T20:31:53.080Z,99481.50
2023-01-03T20:34:21.928Z,99473.03
2023-01-03T20:36:53.426Z,99471.44
2023-01-03T20:39:26.856Z,99475.66
2023-01-03T20:42:01.553Z,99481.66
2023-01-03T20:44:32.174Z,99480.47
2023-01-03T20:47:01.478Z,99484.13
2023-01-03T20:49:30.316Z,99468.63
2023-01-03T20:52:00.148Z,99483.03
2023-01-03T20:54:28.868Z,99467.56
2023-01-03T20:56:57.500Z,99469.81
2023-01-03T20:59:26.290Z,99473.72
2023-01-03T21:01:54.823Z,99476.13
2023-01-03T21:04:23.517Z,99472.91
2023-01-03T21:06:53.509Z,99474.31
2023-01-03T21:09:22.936Z,99470.09
2023-01-03T21:11:51.753Z,99475.22
2023-01-03T21:14:22.682Z,99469.84
2023-01-03T21:16:52.601Z,99473.16
2023-01-03T21:19:23.180Z,99477.22
2023-01-03T21:21:53.806Z,99471.53
2023-01-03T21:24:26.183Z,99471.50
2023-01-03T21:26:55.728Z,99469.75
2023-01-03T21:29:26.336Z,99470.09
2023-01-03T21:31:55.395Z,99469.91
2023-01-03T21:34:24.936Z,99476.16
2023-01-03T21:36:56.158Z,99477.22
2023-01-03T21:39:38.462Z,99476.56
2023-01-03T21:42:25.340Z,99469.63
2023-01-03T21:44:58.223Z,99465.63
2023-01-03T21:47:30.626Z,99472.19
2023-01-03T21:50:07.590Z,99472.94
2023-01-03T21:52:37.160Z,99476.41
2023-01-03T21:55:10.748Z,99475.91
2023-01-03T21:57:46.632Z,99491.94
2023-01-03T22:00:24.009Z,99483.44
2023-01-03T22:03:12.522Z,99503.94
2023-01-03T22:05:49.896Z,99498.34
2023-01-03T22:08:21.051Z,99496.75
2023-01-03T22:10:55.850Z,99500.47
2023-01-03T22:13:30.615Z,99500.84
2023-01-03T22:16:12.168Z,99499.81
2023-01-03T22:18:42.524Z,99499.09
2023-01-03T22:21:17.103Z,99508.25
2023-01-03T22:23:51.830Z,99502.88
2023-01-03T22:26:34.539Z,99501.47
2023-01-03T22:29:04.448Z,99495.66
2023-01-03T22:31:35.332Z,99496.34
2023-01-03T22:34:06.227Z,99500.94
2023-01-03T22:36:35.013Z,99484.97
2023-01-03T22:39:03.815Z,99498.16
2023-01-03T22:41:34.267Z,99493.69
2023-01-03T22:44:03.443Z,99491.50
2023-01-03T22:46:33.236Z,99490.31
2023-01-03T22:49:04.798Z,99501.38
2023-01-03T22:51:36.357Z,99502.44
2023-01-03T22:54:06.622Z,99496.63
2023-01-03T22:56:38.428Z,99499.94
2023-01-03T22:59:07.108Z,99496.06
2023-01-03T23:01:37.609Z,99490.16
2023-01-03T23:04:06.858Z,99496.19
2023-01-03T23:06:36.698Z,99499.25
2023-01-03T23:09:05.291Z,99492.78
2023-01-03T23:11:52.168Z,99491.69
2023-01-03T23:14:23.558Z,99497.72
2023-01-03T23:16:52.953Z,99500.00
2023-01-03T23:19:22.784Z,99506.16
2023-01-03T23:21:51.420Z,99499.28
2023-01-03T23:24:22.539Z,99490.28
2023-01-03T23:26:51.354Z,99487.56
2023-01-03T23:29:21.374Z,99492.88
2023-01-03T23:31:50.408Z,99484.94
2023-01-03T23:34:18.916Z,99492.16
2023-01-03T23:36:47.711Z,99502.13
2023-01-03T23:39:17.553Z,99491.13
2023-01-03T23:41:46.833Z,99493.72
2023-01-03T23:44:15.109Z,99490.69
2023-01-03T23:46:45.215Z,99487.91
2023-01-03T23:49:13.798Z,99490.22
2023-01-03T23:51:42.634Z,99496.00
2023-01-03T23:54:10.934Z,99499.56
2023-01-03T23:56:39.749Z,99498.44
2023-01-03T23:59:08.004Z,99494.63
